Time;durP1;ratioP1;P1;durP2;ratioP2;P2;SDS_P1;SDS_P2;PMS_P1;PMS_P2;Temp;Humidity;BMP_temperature;BMP_pressure;BME280_temperature;BME280_humidity;BME280_pressure;Samples;Min_cycle;Max_cycle;Signal;HPM_P1;HPM_P2
2022/04/21 00:06:31;;;;;;;34.50;27.70;;;;;;;5.82;81.90;99057.54;447954;1267;142825;-63
2022/04/21 00:16:37;;;;;;;37.00;29.40;;;;;;;5.84;81.85;99056.20;438781;1267;143341;-63
2022/04/21 00:26:43;;;;;;;35.60;30.50;;;;;;;5.82;82.01;99060.96;438057;1269;143246;-63
2022/04/21 00:36:49;;;;;;;38.30;30.70;;;;;;;5.73;82.30;99066.48;445823;1267;143478;-63
2022/04/21 00:46:56;;;;;;;37.10;28.80;;;;;;;5.71;82.60;99061.02;447877;1267;144379;-63
2022/04/21 00:57:03;;;;;;;36.20;28.70;;;;;;;5.70;82.62;99056.56;447997;1267;143115;-63
2022/04/21 01:07:09;;;;;;;38.60;29.90;;;;;;;5.65;82.65;99057.85;447206;1266;145503;-63
2022/04/21 01:17:15;;;;;;;41.70;30.10;;;;;;;5.55;82.99;99061.83;447985;1265;143181;-64
2022/04/21 01:27:23;;;;;;;39.60;30.60;;;;;;;5.55;83.18;99059.92;447945;1266;142741;-64
2022/04/21 01:47:52;;;;;;;46.30;31.40;;;;;;;5.62;83.31;99061.17;448000;1265;145322;-64
2022/04/21 01:57:58;;;;;;;43.90;29.40;;;;;;;5.67;83.56;99059.35;447223;1267;142571;-64
2022/04/21 02:08:04;;;;;;;48.70;29.80;;;;;;;5.72;83.62;99065.81;443806;1267;145603;-63
2022/04/21 02:18:10;;;;;;;51.10;32.20;;;;;;;5.78;83.76;99069.71;447712;1269;141019;-63
2022/04/21 02:28:15;;;;;;;48.40;32.50;;;;;;;5.78;83.45;99056.02;447262;1266;143130;-63
2022/04/21 02:38:21;;;;;;;44.70;28.90;;;;;;;5.73;83.53;99055.20;447958;1267;142904;-63
2022/04/21 02:48:27;;;;;;;51.20;33.80;;;;;;;5.66;84.02;99052.80;448040;1267;143168;-64
2022/04/21 02:58:32;;;;;;;54.40;31.60;;;;;;;5.66;84.01;99050.71;446182;1267;143087;-63
2022/04/21 03:08:38;;;;;;;51.00;33.00;;;;;;;5.62;83.97;99048.13;447969;1267;142886;-64
2022/04/21 03:18:44;;;;;;;52.60;31.50;;;;;;;5.65;84.25;99043.65;447184;1266;161207;-64
2022/04/21 03:28:50;;;;;;;49.70;30.50;;;;;;;5.63;84.36;99044.26;447870;1267;143131;-64
2022/04/21 03:38:55;;;;;;;51.10;32.20;;;;;;;5.60;84.52;99043.85;447934;1266;144095;-63
2022/04/21 03:49:01;;;;;;;50.00;29.40;;;;;;;5.51;84.60;99043.34;447237;1267;143059;-63
2022/04/21 03:59:07;;;;;;;55.60;31.90;;;;;;;5.47;85.01;99041.27;447692;1269;141971;-64
2022/04/21 04:19:37;;;;;;;53.00;34.90;;;;;;;5.53;85.51;99048.61;447243;1267;141461;-64
2022/04/21 04:29:43;;;;;;;57.10;35.70;;;;;;;5.60;85.39;99053.96;436218;1269;142324;-64
2022/04/21 04:39:49;;;;;;;54.00;31.00;;;;;;;5.64;85.83;99053.07;447071;1268;141816;-64
2022/04/21 04:49:55;;;;;;;52.10;32.80;;;;;;;5.70;85.76;99037.84;447956;1267;142980;-64
2022/04/21 05:00:01;;;;;;;54.80;33.80;;;;;;;5.83;86.08;99038.20;447973;1267;142713;-64
2022/04/21 05:10:08;;;;;;;51.20;32.30;;;;;;;5.89;85.97;99052.27;447215;1267;143044;-64
2022/04/21 05:20:16;;;;;;;54.30;34.30;;;;;;;5.91;85.91;99058.11;447728;1269;143415;-64
2022/04/21 05:40:48;;;;;;;54.90;33.20;;;;;;;5.88;86.23;99070.23;447919;1268;142291;-64
2022/04/21 05:50:55;;;;;;;59.90;37.40;;;;;;;5.98;86.30;99062.59;447061;1267;142894;-65
2022/04/21 06:01:01;;;;;;;64.10;37.80;;;;;;;6.10;86.38;99065.44;438880;1268;141878;-64
2022/04/21 06:11:09;;;;;;;59.10;35.70;;;;;;;6.20;86.39;99066.48;447950;1268;143563;-60
2022/04/21 06:21:15;;;;;;;40.70;28.70;;;;;;;6.40;86.28;99059.46;447727;1269;142728;-60
2022/04/21 06:31:21;;;;;;;35.00;25.30;;;;;;;6.67;86.04;99056.40;447237;1268;143972;-60
2022/04/21 06:41:26;;;;;;;46.60;26.30;;;;;;;6.92;85.57;99057.45;447770;1269;145127;-60
2022/04/21 06:51:33;;;;;;;32.50;24.30;;;;;;;7.07;84.98;99061.30;448031;1268;143260;-60
2022/04/21 07:01:39;;;;;;;28.20;22.00;;;;;;;7.28;84.76;99057.85;432387;1268;141840;-59
2022/04/21 07:11:45;;;;;;;26.70;19.00;;;;;;;7.32;84.39;99055.52;431827;1267;142517;-61
2022/04/21 07:21:51;;;;;;;22.10;18.40;;;;;;;7.50;84.24;99057.90;440869;1267;143029;-60
2022/04/21 07:31:56;;;;;;;20.50;17.20;;;;;;;7.61;83.75;99057.79;447664;1269;142213;-61
2022/04/21 07:42:03;;;;;;;20.80;18.40;;;;;;;7.63;83.35;99067.42;442653;1270;141676;-62
2022/04/21 08:02:33;;;;;;;16.40;13.90;;;;;;;7.51;83.34;99082.06;447666;1269;142994;-62
2022/04/21 08:12:43;;;;;;;16.60;13.30;;;;;;;7.53;83.40;99088.73;448042;1268;143010;-61
2022/04/21 08:22:49;;;;;;;17.10;13.50;;;;;;;7.64;83.31;99085.35;440386;1268;142286;-62
2022/04/21 08:32:55;;;;;;;16.20;14.10;;;;;;;7.76;83.21;99082.54;439302;1267;143331;-62
2022/04/21 08:43:05;;;;;;;19.40;15.50;;;;;;;7.98;83.26;99090.79;446162;1267;144169;-62
2022/04/21 08:53:14;;;;;;;16.00;14.40;;;;;;;8.49;82.87;99087.45;445299;1270;142409;-61
2022/04/21 09:03:19;;;;;;;16.10;14.30;;;;;;;8.84;81.75;99083.68;431748;1268;141338;-61
2022/04/21 09:13:33;;;;;;;14.00;12.60;;;;;;;8.88;81.23;99093.79;430702;1271;142517;-60
2022/04/21 09:23:39;;;;;;;13.90;12.40;;;;;;;8.93;80.45;99096.39;444615;1268;142697;-61
2022/04/21 09:33:46;;;;;;;13.90;11.20;;;;;;;8.93;80.66;99094.32;441081;1267;141788;-61
2022/04/21 09:43:53;;;;;;;13.10;11.80;;;;;;;8.91;80.39;99097.73;435796;1270;144555;-59
2022/04/21 09:54:28;;;;;;;12.10;9.80;;;;;;;9.25;80.30;99095.69;441000;1267;141629;-60
2022/04/21 10:04:36;;;;;;;9.10;8.00;;;;;;;9.85;79.15;99088.01;446880;1269;144656;-61
2022/04/21 10:14:44;;;;;;;8.20;7.50;;;;;;;10.29;78.14;99079.91;448037;1267;142524;-61
2022/04/21 10:24:54;;;;;;;7.60;6.60;;;;;;;10.92;76.98;99070.73;447313;1266;143208;-62
2022/04/21 10:35:00;;;;;;;8.00;7.20;;;;;;;11.55;75.78;99062.70;448087;1268;143218;-63
2022/04/21 10:45:14;;;;;;;9.20;8.40;;;;;;;12.16;74.29;99062.25;447648;1269;142331;-63
2022/04/21 11:05:46;;;;;;;7.10;6.40;;;;;;;13.21;70.94;99080.33;448038;1267;143560;-61
2022/04/21 11:15:53;;;;;;;7.00;6.30;;;;;;;13.37;69.25;99082.58;447226;1266;143716;-62
2022/04/21 11:26:06;;;;;;;9.40;6.70;;;;;;;12.89;69.05;99082.44;447046;1267;142502;-62
2022/04/21 11:36:14;;;;;;;7.00;5.80;;;;;;;12.34;68.64;99082.42;433087;1267;141606;-62
2022/04/21 11:46:22;;;;;;;6.50;5.90;;;;;;;12.26;68.52;99079.73;447302;1267;141701;-61
2022/04/21 11:56:28;;;;;;;6.50;4.80;;;;;;;12.42;68.22;99076.03;447904;1267;172024;-62
2022/04/21 12:06:37;;;;;;;6.40;4.80;;;;;;;12.58;67.51;99074.73;447911;1268;143747;-62
2022/04/21 12:16:45;;;;;;;6.90;5.90;;;;;;;12.63;67.10;99071.52;448043;1267;142207;-62
2022/04/21 12:26:53;;;;;;;6.10;5.40;;;;;;;12.86;66.66;99067.56;448014;1267;143127;-63
2022/04/21 12:37:00;;;;;;;6.70;6.10;;;;;;;13.21;65.89;99061.06;447293;1267;142405;-61
2022/04/21 12:47:15;;;;;;;6.80;6.20;;;;;;;12.96;65.50;99060.77;447109;1267;142310;-62
2022/04/21 12:57:20;;;;;;;8.20;6.40;;;;;;;12.72;65.90;99062.75;447869;1267;142225;-62
2022/04/21 13:07:26;;;;;;;7.80;7.10;;;;;;;12.37;65.68;99062.52;447215;1266;142961;-61
2022/04/21 13:17:32;;;;;;;8.20;7.50;;;;;;;11.83;65.84;99067.58;447717;1268;146309;-61
2022/04/21 13:27:38;;;;;;;7.20;6.50;;;;;;;11.43;66.74;99066.02;448041;1267;142672;-61
2022/04/21 13:37:43;;;;;;;8.50;7.70;;;;;;;11.01;67.63;99069.21;447862;1268;141841;-62
2022/04/21 13:47:49;;;;;;;14.20;8.40;;;;;;;10.89;68.30;99065.15;439358;1267;142518;-61
2022/04/21 13:57:55;;;;;;;13.60;8.60;;;;;;;11.02;68.96;99070.13;447074;1268;142603;-61
2022/04/21 14:08:01;;;;;;;9.50;8.40;;;;;;;11.30;68.76;99071.95;447922;1267;142889;-62
2022/04/21 14:18:07;;;;;;;13.50;8.70;;;;;;;11.60;68.75;99073.92;447885;1265;144609;-62
2022/04/21 14:28:13;;;;;;;15.70;8.40;;;;;;;11.82;68.40;99075.89;437207;1267;142400;-60
2022/04/21 14:48:42;;;;;;;13.80;8.90;;;;;;;11.93;67.88;99081.38;434229;1267;142586;-60
2022/04/21 14:58:50;;;;;;;16.80;9.80;;;;;;;11.65;67.85;99075.96;430781;1268;151293;-61
2022/04/21 15:08:56;;;;;;;9.90;7.70;;;;;;;11.43;68.37;99074.44;447960;1267;141974;-61
2022/04/21 15:19:02;;;;;;;11.20;8.20;;;;;;;11.31;68.37;99083.79;445418;1267;142442;-61
2022/04/21 15:29:08;;;;;;;13.60;8.90;;;;;;;11.16;68.72;99081.89;438668;1268;142308;-62
2022/04/21 15:39:14;;;;;;;11.80;9.00;;;;;;;11.09;69.12;99085.80;447998;1267;142344;-62
2022/04/21 15:49:20;;;;;;;10.00;8.80;;;;;;;11.01;69.49;99083.15;447110;1267;142508;-61
2022/04/21 15:59:25;;;;;;;13.40;9.00;;;;;;;10.96;69.81;99087.77;448027;1265;143523;-62
2022/04/21 16:09:31;;;;;;;19.00;11.40;;;;;;;10.73;69.93;99095.35;444998;1267;144035;-61
2022/04/21 16:19:37;;;;;;;16.20;10.00;;;;;;;10.45;70.40;99099.25;447078;1266;143359;-61
2022/04/21 16:29:43;;;;;;;12.10;8.90;;;;;;;10.27;71.12;99094.70;447855;1267;142459;-62
2022/04/21 16:39:50;;;;;;;12.10;9.70;;;;;;;10.02;71.58;99094.38;435496;1267;143266;-61
2022/04/21 16:49:55;;;;;;;13.00;9.90;;;;;;;9.87;71.85;99093.84;434839;1268;142091;-60
2022/04/21 17:00:01;;;;;;;10.90;9.20;;;;;;;9.81;72.43;99097.39;448020;1267;142213;-60
2022/04/21 17:10:09;;;;;;;14.70;9.30;;;;;;;9.67;72.61;99089.96;431583;1268;146307;-60
2022/04/21 17:20:14;;;;;;;10.50;9.40;;;;;;;9.50;73.08;99091.13;448101;1267;142338;-62
2022/04/21 17:30:21;;;;;;;18.60;12.90;;;;;;;9.38;73.36;99094.98;440738;1267;143030;-59
2022/04/21 17:40:28;;;;;;;22.10;17.80;;;;;;;9.38;73.91;99099.20;447110;1268;196246;-62
2022/04/21 17:50:36;;;;;;;15.80;12.90;;;;;;;9.41;74.24;99104.81;447811;1268;142123;-62
2022/04/21 18:00:42;;;;;;;16.90;13.60;;;;;;;9.40;74.65;99099.60;447713;1269;185669;-62
2022/04/21 18:10:48;;;;;;;18.00;15.40;;;;;;;9.36;74.95;99103.05;448038;1268;142742;-63
2022/04/21 18:20:54;;;;;;;22.60;19.10;;;;;;;9.27;75.31;99106.40;446920;1267;141470;-62
2022/04/21 18:31:00;;;;;;;23.90;18.80;;;;;;;9.19;75.75;99112.15;435939;1267;141413;-62
2022/04/21 18:41:07;;;;;;;24.30;21.30;;;;;;;9.12;76.09;99115.77;435477;1267;141917;-61
2022/04/21 18:51:14;;;;;;;22.10;19.10;;;;;;;9.08;76.44;99117.06;445373;1269;141621;-62
2022/04/21 19:01:20;;;;;;;26.80;20.30;;;;;;;9.05;76.61;99107.32;434384;1268;142025;-61
2022/04/21 19:11:27;;;;;;;26.80;21.50;;;;;;;9.03;76.97;99102.92;439301;1270;141910;-61
2022/04/21 19:21:44;;;;;;;27.50;19.90;;;;;;;8.96;77.15;99097.06;447760;1269;142886;-61
2022/04/21 19:32:11;;;;;;;24.20;19.70;;;;;;;8.93;77.44;99091.85;444975;1268;142789;-61
2022/04/21 19:42:16;;;;;;;27.00;21.40;;;;;;;8.90;77.40;99090.30;447873;1268;142764;-61
2022/04/21 19:52:22;;;;;;;23.80;20.60;;;;;;;8.89;77.61;99079.74;434507;1268;142731;-63
2022/04/21 20:02:28;;;;;;;22.20;19.90;;;;;;;8.87;78.06;99072.90;443613;1267;142193;-61
2022/04/21 20:12:38;;;;;;;24.60;18.50;;;;;;;8.84;78.03;99075.66;447898;1268;142751;-62
2022/04/21 20:22:47;;;;;;;25.10;19.80;;;;;;;8.83;78.08;99075.71;441042;1268;142388;-62
2022/04/21 20:32:53;;;;;;;23.40;20.60;;;;;;;8.80;78.31;99073.65;448029;1268;142637;-63
2022/04/21 20:42:59;;;;;;;24.40;20.80;;;;;;;8.76;78.40;99076.50;446839;1268;142829;-61
2022/04/21 20:53:05;;;;;;;24.60;22.00;;;;;;;8.77;78.47;99083.27;447976;1268;142895;-61
2022/04/21 21:03:11;;;;;;;27.30;22.60;;;;;;;8.79;78.80;99081.73;447947;1268;142785;-62
2022/04/21 21:13:17;;;;;;;31.90;28.40;;;;;;;8.81;78.75;99083.92;446983;1268;187789;-61
2022/04/21 21:23:22;;;;;;;31.80;26.50;;;;;;;8.78;78.97;99085.46;445525;1269;141622;-62
2022/04/21 21:33:28;;;;;;;33.40;27.50;;;;;;;8.70;79.03;99087.55;445762;1267;142417;-62
2022/04/21 21:43:34;;;;;;;32.40;26.80;;;;;;;8.64;79.12;99084.63;443561;1267;142414;-64
2022/04/21 21:53:40;;;;;;;32.40;26.80;;;;;;;8.57;79.30;99082.98;447818;1267;142496;-62
2022/04/21 22:03:46;;;;;;;32.40;28.60;;;;;;;8.52;79.56;99084.69;447157;1268;142687;-63
2022/04/21 22:13:52;;;;;;;27.10;20.60;;;;;;;8.45;79.76;99089.29;446325;1268;142855;-63
2022/04/21 22:23:58;;;;;;;22.40;20.00;;;;;;;8.43;79.50;99081.05;447992;1268;142654;-62
2022/04/21 22:34:04;;;;;;;15.50;13.90;;;;;;;8.35;79.56;99074.88;432274;1268;164527;-62
2022/04/21 22:44:10;;;;;;;13.40;12.00;;;;;;;8.10;78.91;99074.35;432034;1268;142377;-62
2022/04/21 22:54:16;;;;;;;13.90;11.90;;;;;;;7.78;78.70;99072.83;447938;1267;141710;-63
2022/04/21 23:04:22;;;;;;;10.90;9.80;;;;;;;7.41;78.96;99070.66;447218;1267;142481;-63
2022/04/21 23:14:28;;;;;;;12.20;10.20;;;;;;;7.12;79.14;99069.68;441288;1268;142613;-64
2022/04/21 23:24:35;;;;;;;13.20;11.30;;;;;;;6.88;79.47;99063.80;440753;1269;142329;-62
2022/04/21 23:34:41;;;;;;;14.90;11.90;;;;;;;6.65;79.95;99065.77;434565;1268;142252;-61
2022/04/21 23:44:47;;;;;;;15.50;14.00;;;;;;;6.41;80.20;99056.47;438354;1268;141669;-62
2022/04/21 23:55:02;;;;;;;20.60;15.50;;;;;;;6.23;80.93;99041.81;447153;1267;189338;-62
